sensor_id;sensor_type;location;lat;lon;timestamp;pressure;altitude;pressure_sealevel;temperature;humidity
76819;BME280;65772;51.096;17.006;2023-03-14T00:02:05;98518.65;;;11.68;54.70
76819;BME280;65772;51.096;17.006;2023-03-14T00:04:36;98511.13;;;11.69;54.81
76819;BME280;65772;51.096;17.006;2023-03-14T00:07:06;98503.27;;;11.69;54.92
76819;BME280;65772;51.096;17.006;2023-03-14T00:09:37;98504.12;;;11.69;54.98
76819;BME280;65772;51.096;17.006;2023-03-14T00:12:08;98508.57;;;11.69;54.97
76819;BME280;65772;51.096;17.006;2023-03-14T00:14:38;98513.52;;;11.69;55.05
76819;BME280;65772;51.096;17.006;2023-03-14T00:17:11;98520.52;;;11.68;55.03
76819;BME280;65772;51.096;17.006;2023-03-14T00:19:42;98517.45;;;11.68;55.09
76819;BME280;65772;51.096;17.006;2023-03-14T00:22:13;98514.55;;;11.68;55.15
76819;BME280;65772;51.096;17.006;2023-03-14T00:24:43;98511.64;;;11.69;55.23
76819;BME280;65772;51.096;17.006;2023-03-14T00:27:14;98502.23;;;11.70;55.25
76819;BME280;65772;51.096;17.006;2023-03-14T00:29:45;98500.01;;;11.71;55.19
76819;BME280;65772;51.096;17.006;2023-03-14T00:32:15;98494.03;;;11.72;55.16
76819;BME280;65772;51.096;17.006;2023-03-14T00:34:46;98494.38;;;11.73;54.87
76819;BME280;65772;51.096;17.006;2023-03-14T00:37:17;98493.69;;;11.74;54.95
76819;BME280;65772;51.096;17.006;2023-03-14T00:39:47;98491.65;;;11.75;54.82
76819;BME280;65772;51.096;17.006;2023-03-14T00:42:18;98484.97;;;11.76;54.74
76819;BME280;65772;51.096;17.006;2023-03-14T00:44:48;98484.45;;;11.78;54.78
76819;BME280;65772;51.096;17.006;2023-03-14T00:47:18;98486.48;;;11.78;54.65
76819;BME280;65772;51.096;17.006;2023-03-14T00:49:49;98487.70;;;11.78;54.83
76819;BME280;65772;51.096;17.006;2023-03-14T00:52:20;98492.30;;;11.78;54.93
76819;BME280;65772;51.096;17.006;2023-03-14T00:54:51;98502.56;;;11.78;54.78
76819;BME280;65772;51.096;17.006;2023-03-14T00:57:21;98540.85;;;11.78;54.86
76819;BME280;65772;51.096;17.006;2023-03-14T00:59:53;98581.20;;;11.78;54.69
76819;BME280;65772;51.096;17.006;2023-03-14T01:02:23;98564.95;;;11.78;54.34
76819;BME280;65772;51.096;17.006;2023-03-14T01:04:54;98551.80;;;11.80;53.94
76819;BME280;65772;51.096;17.006;2023-03-14T01:07:24;98546.66;;;11.83;54.00
76819;BME280;65772;51.096;17.006;2023-03-14T01:09:55;98543.06;;;11.86;53.90
76819;BME280;65772;51.096;17.006;2023-03-14T01:12:25;98536.52;;;11.88;53.97
76819;BME280;65772;51.096;17.006;2023-03-14T01:14:57;98506.27;;;11.89;53.94
76819;BME280;65772;51.096;17.006;2023-03-14T01:17:28;98515.33;;;11.91;54.01
76819;BME280;65772;51.096;17.006;2023-03-14T01:19:59;98523.87;;;11.92;53.99
76819;BME280;65772;51.096;17.006;2023-03-14T01:22:30;98530.52;;;11.93;54.05
76819;BME280;65772;51.096;17.006;2023-03-14T01:25:01;98522.83;;;11.95;53.98
76819;BME280;65772;51.096;17.006;2023-03-14T01:27:31;98526.60;;;11.96;53.99
76819;BME280;65772;51.096;17.006;2023-03-14T01:30:02;98524.70;;;11.98;54.00
76819;BME280;65772;51.096;17.006;2023-03-14T01:32:33;98516.80;;;11.98;54.13
76819;BME280;65772;51.096;17.006;2023-03-14T01:35:05;98505.52;;;11.97;54.32
76819;BME280;65772;51.096;17.006;2023-03-14T01:37:36;98485.89;;;11.96;54.56
76819;BME280;65772;51.096;17.006;2023-03-14T01:40:13;98474.09;;;11.97;54.56
76819;BME280;65772;51.096;17.006;2023-03-14T01:42:55;98467.07;;;11.97;54.57
76819;BME280;65772;51.096;17.006;2023-03-14T01:48:43;98445.19;;;11.96;54.78
76819;BME280;65772;51.096;17.006;2023-03-14T01:51:18;98434.42;;;11.96;54.93
76819;BME280;65772;51.096;17.006;2023-03-14T01:53:50;98434.07;;;11.96;55.38
76819;BME280;65772;51.096;17.006;2023-03-14T01:56:24;98435.80;;;11.97;55.67
76819;BME280;65772;51.096;17.006;2023-03-14T01:58:55;98435.94;;;11.97;55.88
76819;BME280;65772;51.096;17.006;2023-03-14T02:01:27;98435.11;;;11.96;55.99
76819;BME280;65772;51.096;17.006;2023-03-14T02:04:01;98423.15;;;11.94;55.99
76819;BME280;65772;51.096;17.006;2023-03-14T02:06:39;98414.95;;;11.93;56.09
76819;BME280;65772;51.096;17.006;2023-03-14T02:09:11;98387.59;;;11.93;56.10
76819;BME280;65772;51.096;17.006;2023-03-14T02:11:41;98368.11;;;11.92;56.10
76819;BME280;65772;51.096;17.006;2023-03-14T02:14:48;98361.79;;;11.91;56.14
76819;BME280;65772;51.096;17.006;2023-03-14T02:17:52;98355.30;;;11.90;56.15
76819;BME280;65772;51.096;17.006;2023-03-14T02:20:50;98363.85;;;11.89;56.02
76819;BME280;65772;51.096;17.006;2023-03-14T02:23:23;98366.25;;;11.88;56.19
76819;BME280;65772;51.096;17.006;2023-03-14T02:26:00;98366.80;;;11.86;56.32
76819;BME280;65772;51.096;17.006;2023-03-14T02:28:33;98353.13;;;11.85;56.48
76819;BME280;65772;51.096;17.006;2023-03-14T02:31:05;98342.52;;;11.84;56.47
76819;BME280;65772;51.096;17.006;2023-03-14T02:33:38;98333.81;;;11.83;56.56
76819;BME280;65772;51.096;17.006;2023-03-14T02:36:13;98328.02;;;11.81;56.43
76819;BME280;65772;51.096;17.006;2023-03-14T02:38:49;98322.55;;;11.79;56.59
76819;BME280;65772;51.096;17.006;2023-03-14T02:41:24;98320.85;;;11.77;56.59
76819;BME280;65772;51.096;17.006;2023-03-14T02:44:01;98317.27;;;11.77;56.47
76819;BME280;65772;51.096;17.006;2023-03-14T02:46:33;98318.48;;;11.76;56.31
76819;BME280;65772;51.096;17.006;2023-03-14T02:49:06;98320.36;;;11.76;56.15
76819;BME280;65772;51.096;17.006;2023-03-14T02:51:39;98320.02;;;11.76;55.87
76819;BME280;65772;51.096;17.006;2023-03-14T02:54:10;98314.02;;;11.77;55.88
76819;BME280;65772;51.096;17.006;2023-03-14T02:56:41;98311.46;;;11.77;55.78
76819;BME280;65772;51.096;17.006;2023-03-14T02:59:14;98300.88;;;11.76;55.60
76819;BME280;65772;51.096;17.006;2023-03-14T03:01:52;98277.62;;;11.77;55.65
76819;BME280;65772;51.096;17.006;2023-03-14T03:04:22;98265.48;;;11.77;55.39
76819;BME280;65772;51.096;17.006;2023-03-14T03:06:53;98256.77;;;11.75;55.35
76819;BME280;65772;51.096;17.006;2023-03-14T03:09:24;98261.05;;;11.75;55.36
76819;BME280;65772;51.096;17.006;2023-03-14T03:11:54;98253.02;;;11.75;55.04
76819;BME280;65772;51.096;17.006;2023-03-14T03:14:26;98259.01;;;11.74;54.96
76819;BME280;65772;51.096;17.006;2023-03-14T03:16:58;98271.14;;;11.73;55.00
76819;BME280;65772;51.096;17.006;2023-03-14T03:19:29;98268.58;;;11.72;55.01
76819;BME280;65772;51.096;17.006;2023-03-14T03:21:59;98264.65;;;11.71;55.09
76819;BME280;65772;51.096;17.006;2023-03-14T03:24:30;98263.64;;;11.70;55.06
76819;BME280;65772;51.096;17.006;2023-03-14T03:27:00;98255.44;;;11.69;55.16
76819;BME280;65772;51.096;17.006;2023-03-14T03:29:31;98262.44;;;11.68;55.04
76819;BME280;65772;51.096;17.006;2023-03-14T03:32:02;98255.11;;;11.67;55.24
76819;BME280;65772;51.096;17.006;2023-03-14T03:34:32;98265.38;;;11.65;55.30
76819;BME280;65772;51.096;17.006;2023-03-14T03:37:03;98269.65;;;11.65;55.35
76819;BME280;65772;51.096;17.006;2023-03-14T03:39:36;98258.06;;;11.64;55.35
76819;BME280;65772;51.096;17.006;2023-03-14T03:42:06;98259.25;;;11.64;55.33
76819;BME280;65772;51.096;17.006;2023-03-14T03:44:36;98257.05;;;11.63;55.38
76819;BME280;65772;51.096;17.006;2023-03-14T03:47:07;98245.77;;;11.62;55.31
76819;BME280;65772;51.096;17.006;2023-03-14T03:49:38;98234.48;;;11.61;55.30
76819;BME280;65772;51.096;17.006;2023-03-14T03:52:10;98226.30;;;11.60;55.41
76819;BME280;65772;51.096;17.006;2023-03-14T03:54:41;98233.14;;;11.59;55.50
76819;BME280;65772;51.096;17.006;2023-03-14T03:57:12;98225.28;;;11.58;55.38
76819;BME280;65772;51.096;17.006;2023-03-14T03:59:42;98223.58;;;11.58;55.36
76819;BME280;65772;51.096;17.006;2023-03-14T04:02:13;98218.45;;;11.59;55.32
76819;BME280;65772;51.096;17.006;2023-03-14T04:04:43;98217.77;;;11.58;55.48
76819;BME280;65772;51.096;17.006;2023-03-14T04:07:14;98214.85;;;11.59;55.43
76819;BME280;65772;51.096;17.006;2023-03-14T04:09:46;98218.96;;;11.58;55.41
76819;BME280;65772;51.096;17.006;2023-03-14T04:12:36;98219.81;;;11.58;55.41
76819;BME280;65772;51.096;17.006;2023-03-14T04:15:13;98205.80;;;11.59;55.34
76819;BME280;65772;51.096;17.006;2023-03-14T04:17:48;98201.17;;;11.60;55.50
76819;BME280;65772;51.096;17.006;2023-03-14T04:20:19;98199.98;;;11.61;55.64
76819;BME280;65772;51.096;17.006;2023-03-14T04:22:50;98190.05;;;11.62;55.53
76819;BME280;65772;51.096;17.006;2023-03-14T04:25:20;98191.07;;;11.64;55.48
76819;BME280;65772;51.096;17.006;2023-03-14T04:27:56;98166.97;;;11.64;55.50
76819;BME280;65772;51.096;17.006;2023-03-14T04:30:30;98151.77;;;11.64;55.59
76819;BME280;65772;51.096;17.006;2023-03-14T04:33:05;98151.41;;;11.65;55.61
76819;BME280;65772;51.096;17.006;2023-03-14T04:35:40;98154.30;;;11.65;55.77
76819;BME280;65772;51.096;17.006;2023-03-14T04:38:15;98166.59;;;11.65;55.46
76819;BME280;65772;51.096;17.006;2023-03-14T04:40:47;98168.48;;;11.65;55.26
76819;BME280;65772;51.096;17.006;2023-03-14T04:43:20;98162.30;;;11.66;55.51
76819;BME280;65772;51.096;17.006;2023-03-14T04:54:21;98171.01;;;11.69;55.51
76819;BME280;65772;51.096;17.006;2023-03-14T04:56:55;98174.25;;;11.69;55.31
76819;BME280;65772;51.096;17.006;2023-03-14T04:59:26;98177.66;;;11.70;55.40
76819;BME280;65772;51.096;17.006;2023-03-14T05:02:01;98179.54;;;11.72;55.28
76819;BME280;65772;51.096;17.006;2023-03-14T05:04:47;98171.84;;;11.73;55.10
76819;BME280;65772;51.096;17.006;2023-03-14T05:07:46;98170.63;;;11.75;55.10
76819;BME280;65772;51.096;17.006;2023-03-14T05:10:39;98171.84;;;11.76;55.61
76819;BME280;65772;51.096;17.006;2023-03-14T05:13:32;98155.60;;;11.76;55.97
76819;BME280;65772;51.096;17.006;2023-03-14T05:16:22;98143.29;;;11.75;56.11
76819;BME280;65772;51.096;17.006;2023-03-14T05:19:05;98133.54;;;11.74;56.10
76819;BME280;65772;51.096;17.006;2023-03-14T05:21:54;98133.55;;;11.73;56.36
76819;BME280;65772;51.096;17.006;2023-03-14T05:24:50;98115.44;;;11.73;56.62
76819;BME280;65772;51.096;17.006;2023-03-14T05:27:28;98123.63;;;11.74;56.70
76819;BME280;65772;51.096;17.006;2023-03-14T05:30:12;98120.71;;;11.74;56.77
76819;BME280;65772;51.096;17.006;2023-03-14T05:32:50;98122.25;;;11.74;57.05
76819;BME280;65772;51.096;17.006;2023-03-14T05:35:20;98130.80;;;11.73;57.25
76819;BME280;65772;51.096;17.006;2023-03-14T05:38:09;98139.19;;;11.72;57.21
76819;BME280;65772;51.096;17.006;2023-03-14T05:40:59;98139.20;;;11.71;57.37
76819;BME280;65772;51.096;17.006;2023-03-14T05:43:41;98147.41;;;11.71;57.68
76819;BME280;65772;51.096;17.006;2023-03-14T05:46:31;98162.29;;;11.70;57.66
76819;BME280;65772;51.096;17.006;2023-03-14T05:49:24;98163.15;;;11.69;57.50
76819;BME280;65772;51.096;17.006;2023-03-14T05:51:58;98152.23;;;11.67;57.41
76819;BME280;65772;51.096;17.006;2023-03-14T05:54:46;98162.34;;;11.64;57.65
76819;BME280;65772;51.096;17.006;2023-03-14T05:57:45;98155.53;;;11.63;57.86
76819;BME280;65772;51.096;17.006;2023-03-14T06:00:17;98149.38;;;11.63;57.85
76819;BME280;65772;51.096;17.006;2023-03-14T06:02:57;98147.51;;;11.63;58.03
76819;BME280;65772;51.096;17.006;2023-03-14T06:05:29;98144.09;;;11.63;57.94
76819;BME280;65772;51.096;17.006;2023-03-14T06:16:25;98156.64;;;11.69;57.54
76819;BME280;65772;51.096;17.006;2023-03-14T06:18:56;98152.70;;;11.71;57.50
76819;BME280;65772;51.096;17.006;2023-03-14T06:21:27;98162.44;;;11.75;57.40
76819;BME280;65772;51.096;17.006;2023-03-14T06:23:58;98176.94;;;11.77;57.38
76819;BME280;65772;51.096;17.006;2023-03-14T06:26:31;98175.02;;;11.80;57.35
76819;BME280;65772;51.096;17.006;2023-03-14T06:29:02;98171.93;;;11.83;57.26
76819;BME280;65772;51.096;17.006;2023-03-14T06:31:33;98189.85;;;11.86;57.17
76819;BME280;65772;51.096;17.006;2023-03-14T06:34:06;98203.14;;;11.87;57.07
76819;BME280;65772;51.096;17.006;2023-03-14T06:36:36;98203.66;;;11.88;56.85
76819;BME280;65772;51.096;17.006;2023-03-14T06:39:07;98196.64;;;11.89;56.79
76819;BME280;65772;51.096;17.006;2023-03-14T06:41:39;98196.13;;;11.89;56.72
76819;BME280;65772;51.096;17.006;2023-03-14T06:44:11;98194.06;;;11.90;56.72
76819;BME280;65772;51.096;17.006;2023-03-14T06:46:42;98192.01;;;11.91;56.78
76819;BME280;65772;51.096;17.006;2023-03-14T06:49:13;98190.45;;;11.92;56.75
76819;BME280;65772;51.096;17.006;2023-03-14T06:51:44;98198.31;;;11.94;56.50
76819;BME280;65772;51.096;17.006;2023-03-14T06:54:15;98197.61;;;11.96;56.57
76819;BME280;65772;51.096;17.006;2023-03-14T06:56:46;98199.80;;;11.98;56.49
76819;BME280;65772;51.096;17.006;2023-03-14T06:59:17;98209.17;;;11.99;56.58
76819;BME280;65772;51.096;17.006;2023-03-14T07:01:49;98210.72;;;11.99;56.53
76819;BME280;65772;51.096;17.006;2023-03-14T07:04:20;98205.25;;;11.99;56.51
76819;BME280;65772;51.096;17.006;2023-03-14T07:06:50;98195.48;;;12.00;56.41
76819;BME280;65772;51.096;17.006;2023-03-14T07:09:21;98195.65;;;12.02;56.45
76819;BME280;65772;51.096;17.006;2023-03-14T07:11:56;98203.33;;;12.04;56.61
76819;BME280;65772;51.096;17.006;2023-03-14T07:14:27;98207.42;;;12.05;56.47
76819;BME280;65772;51.096;17.006;2023-03-14T07:16:57;98213.40;;;12.06;56.51
76819;BME280;65772;51.096;17.006;2023-03-14T07:19:28;98220.23;;;12.07;56.56
76819;BME280;65772;51.096;17.006;2023-03-14T07:21:58;98230.80;;;12.08;56.37
76819;BME280;65772;51.096;17.006;2023-03-14T07:24:29;98237.28;;;12.10;56.42
76819;BME280;65772;51.096;17.006;2023-03-14T07:27:00;98236.93;;;12.11;56.37
76819;BME280;65772;51.096;17.006;2023-03-14T07:29:31;98234.36;;;12.12;56.35
76819;BME280;65772;51.096;17.006;2023-03-14T07:32:04;98225.29;;;12.12;56.44
76819;BME280;65772;51.096;17.006;2023-03-14T07:34:35;98211.61;;;12.13;56.33
76819;BME280;65772;51.096;17.006;2023-03-14T07:37:06;98208.02;;;12.13;56.48
76819;BME280;65772;51.096;17.006;2023-03-14T07:39:37;98209.72;;;12.13;56.52
76819;BME280;65772;51.096;17.006;2023-03-14T07:42:13;98211.95;;;12.13;56.52
76819;BME280;65772;51.096;17.006;2023-03-14T07:45:02;98200.14;;;12.13;56.45
76819;BME280;65772;51.096;17.006;2023-03-14T07:47:35;98184.24;;;12.13;56.28
76819;BME280;65772;51.096;17.006;2023-03-14T07:50:07;98170.05;;;12.11;56.29
76819;BME280;65772;51.096;17.006;2023-03-14T07:52:38;98169.05;;;12.09;56.33
76819;BME280;65772;51.096;17.006;2023-03-14T07:55:10;98174.39;;;12.07;56.27
76819;BME280;65772;51.096;17.006;2023-03-14T07:57:42;98187.23;;;12.06;56.40
76819;BME280;65772;51.096;17.006;2023-03-14T08:00:15;98204.86;;;12.04;56.49
76819;BME280;65772;51.096;17.006;2023-03-14T08:02:47;98207.27;;;12.02;56.52
76819;BME280;65772;51.096;17.006;2023-03-14T08:05:18;98194.97;;;12.01;56.60
76819;BME280;65772;51.096;17.006;2023-03-14T08:07:48;98194.29;;;12.01;56.51
76819;BME280;65772;51.096;17.006;2023-03-14T08:10:19;98195.15;;;12.00;56.56
76819;BME280;65772;51.096;17.006;2023-03-14T08:12:55;98195.00;;;11.98;56.50
76819;BME280;65772;51.096;17.006;2023-03-14T08:15:27;98203.25;;;11.96;56.46
76819;BME280;65772;51.096;17.006;2023-03-14T08:17:58;98197.27;;;11.95;56.74
76819;BME280;65772;51.096;17.006;2023-03-14T08:20:29;98193.87;;;11.93;56.54
76819;BME280;65772;51.096;17.006;2023-03-14T08:23:01;98194.91;;;11.92;56.64
76819;BME280;65772;51.096;17.006;2023-03-14T08:25:31;98206.02;;;11.90;56.80
76819;BME280;65772;51.096;17.006;2023-03-14T08:28:02;98210.84;;;11.88;56.68
76819;BME280;65772;51.096;17.006;2023-03-14T08:30:33;98226.05;;;11.88;56.76
76819;BME280;65772;51.096;17.006;2023-03-14T08:33:04;98225.22;;;11.87;56.82
76819;BME280;65772;51.096;17.006;2023-03-14T08:35:34;98229.49;;;11.86;56.92
76819;BME280;65772;51.096;17.006;2023-03-14T08:38:05;98238.08;;;11.85;56.96
76819;BME280;65772;51.096;17.006;2023-03-14T08:40:35;98238.92;;;11.86;57.06
76819;BME280;65772;51.096;17.006;2023-03-14T08:43:06;98242.17;;;11.85;57.16
76819;BME280;65772;51.096;17.006;2023-03-14T08:45:36;98252.42;;;11.85;57.34
76819;BME280;65772;51.096;17.006;2023-03-14T08:48:07;98251.02;;;11.88;57.57
76819;BME280;65772;51.096;17.006;2023-03-14T08:50:38;98252.89;;;11.89;57.80
76819;BME280;65772;51.096;17.006;2023-03-14T08:53:08;98256.80;;;11.92;57.82
76819;BME280;65772;51.096;17.006;2023-03-14T08:55:39;98256.38;;;11.98;58.03
76819;BME280;65772;51.096;17.006;2023-03-14T08:58:09;98252.23;;;12.04;58.11
76819;BME280;65772;51.096;17.006;2023-03-14T09:00:40;98254.04;;;12.09;58.29
76819;BME280;65772;51.096;17.006;2023-03-14T09:03:11;98249.05;;;12.13;58.03
76819;BME280;65772;51.096;17.006;2023-03-14T09:05:42;98245.61;;;12.16;58.12
76819;BME280;65772;51.096;17.006;2023-03-14T09:08:13;98245.05;;;12.19;57.90
76819;BME280;65772;51.096;17.006;2023-03-14T09:10:43;98250.66;;;12.22;57.85
76819;BME280;65772;51.096;17.006;2023-03-14T09:13:14;98243.98;;;12.24;57.93
76819;BME280;65772;51.096;17.006;2023-03-14T09:15:45;98245.15;;;12.27;57.98
76819;BME280;65772;51.096;17.006;2023-03-14T09:18:20;98245.48;;;12.28;57.87
76819;BME280;65772;51.096;17.006;2023-03-14T09:20:50;98251.58;;;12.31;57.76
76819;BME280;65772;51.096;17.006;2023-03-14T09:23:21;98255.16;;;12.33;57.77
76819;BME280;65772;51.096;17.006;2023-03-14T09:25:55;98252.56;;;12.37;57.45
76819;BME280;65772;51.096;17.006;2023-03-14T09:28:27;98249.92;;;12.40;57.47
76819;BME280;65772;51.096;17.006;2023-03-14T09:30:57;98262.22;;;12.44;57.42
76819;BME280;65772;51.096;17.006;2023-03-14T09:33:28;98269.56;;;12.46;57.43
76819;BME280;65772;51.096;17.006;2023-03-14T09:36:00;98269.73;;;12.46;57.31
76819;BME280;65772;51.096;17.006;2023-03-14T09:38:31;98271.27;;;12.47;57.09
76819;BME280;65772;51.096;17.006;2023-03-14T09:41:10;98278.29;;;12.46;57.15
76819;BME280;65772;51.096;17.006;2023-03-14T09:43:43;98287.19;;;12.46;57.04
76819;BME280;65772;51.096;17.006;2023-03-14T09:46:16;98292.66;;;12.46;56.87
76819;BME280;65772;51.096;17.006;2023-03-14T09:48:47;98296.77;;;12.46;57.33
76819;BME280;65772;51.096;17.006;2023-03-14T09:51:19;98300.72;;;12.44;57.06
76819;BME280;65772;51.096;17.006;2023-03-14T09:53:51;98301.93;;;12.42;57.11
76819;BME280;65772;51.096;17.006;2023-03-14T09:56:25;98303.48;;;12.42;57.21
76819;BME280;65772;51.096;17.006;2023-03-14T09:58:58;98308.10;;;12.42;57.23
76819;BME280;65772;51.096;17.006;2023-03-14T10:01:31;98301.75;;;12.43;57.24
76819;BME280;65772;51.096;17.006;2023-03-14T10:04:04;98300.20;;;12.44;57.34
76819;BME280;65772;51.096;17.006;2023-03-14T10:06:36;98295.73;;;12.48;57.40
76819;BME280;65772;51.096;17.006;2023-03-14T10:09:09;98298.58;;;12.51;57.37
76819;BME280;65772;51.096;17.006;2023-03-14T10:11:42;98299.58;;;12.54;57.46
76819;BME280;65772;51.096;17.006;2023-03-14T10:14:13;98298.87;;;12.57;57.45
76819;BME280;65772;51.096;17.006;2023-03-14T10:17:06;98293.88;;;12.60;57.47
76819;BME280;65772;51.096;17.006;2023-03-14T10:19:39;98294.67;;;12.63;57.53
76819;BME280;65772;51.096;17.006;2023-03-14T10:22:21;98290.01;;;12.68;57.47
76819;BME280;65772;51.096;17.006;2023-03-14T10:24:55;98284.61;;;12.74;57.49
76819;BME280;65772;51.096;17.006;2023-03-14T10:27:32;98278.19;;;12.81;57.54
76819;BME280;65772;51.096;17.006;2023-03-14T10:30:05;98279.64;;;12.88;57.60
76819;BME280;65772;51.096;17.006;2023-03-14T10:32:38;98281.59;;;12.96;57.67
76819;BME280;65772;51.096;17.006;2023-03-14T10:35:24;98283.01;;;13.04;57.48
76819;BME280;65772;51.096;17.006;2023-03-14T10:37:57;98285.13;;;13.13;57.58
76819;BME280;65772;51.096;17.006;2023-03-14T10:40:32;98280.41;;;13.21;57.49
76819;BME280;65772;51.096;17.006;2023-03-14T10:43:06;98272.77;;;13.28;57.24
76819;BME280;65772;51.096;17.006;2023-03-14T10:45:39;98273.03;;;13.34;57.33
76819;BME280;65772;51.096;17.006;2023-03-14T10:48:22;98270.36;;;13.41;57.23
76819;BME280;65772;51.096;17.006;2023-03-14T10:51:02;98269.03;;;13.47;56.97
76819;BME280;65772;51.096;17.006;2023-03-14T10:53:41;98265.36;;;13.53;57.03
76819;BME280;65772;51.096;17.006;2023-03-14T10:56:15;98264.09;;;13.56;56.94
76819;BME280;65772;51.096;17.006;2023-03-14T10:58:47;98268.82;;;13.61;56.96
76819;BME280;65772;51.096;17.006;2023-03-14T11:01:39;98268.39;;;13.66;57.02
76819;BME280;65772;51.096;17.006;2023-03-14T11:04:21;98267.73;;;13.75;56.87
76819;BME280;65772;51.096;17.006;2023-03-14T11:07:05;98266.55;;;13.84;56.87
76819;BME280;65772;51.096;17.006;2023-03-14T11:09:44;98255.42;;;13.92;56.78
76819;BME280;65772;51.096;17.006;2023-03-14T11:12:31;98256.44;;;14.03;56.58
76819;BME280;65772;51.096;17.006;2023-03-14T11:15:13;98254.74;;;14.11;56.58
76819;BME280;65772;51.096;17.006;2023-03-14T11:17:53;98255.84;;;14.17;56.30
76819;BME280;65772;51.096;17.006;2023-03-14T11:20:38;98246.00;;;14.20;56.20
76819;BME280;65772;51.096;17.006;2023-03-14T11:23:16;98241.13;;;14.23;55.81
76819;BME280;65772;51.096;17.006;2023-03-14T11:25:56;98231.42;;;14.28;55.52
76819;BME280;65772;51.096;17.006;2023-03-14T11:28:32;98228.71;;;14.35;55.49
76819;BME280;65772;51.096;17.006;2023-03-14T11:31:13;98230.94;;;14.45;55.23
76819;BME280;65772;51.096;17.006;2023-03-14T11:33:59;98227.83;;;14.53;55.06
76819;BME280;65772;51.096;17.006;2023-03-14T11:36:36;98217.80;;;14.57;54.79
76819;BME280;65772;51.096;17.006;2023-03-14T11:39:13;98218.55;;;14.62;54.83
76819;BME280;65772;51.096;17.006;2023-03-14T11:41:47;98221.88;;;14.68;54.69
76819;BME280;65772;51.096;17.006;2023-03-14T11:44:21;98233.67;;;14.71;54.32
76819;BME280;65772;51.096;17.006;2023-03-14T11:46:56;98234.67;;;14.72;54.17
76819;BME280;65772;51.096;17.006;2023-03-14T11:49:34;98231.09;;;14.71;54.09
76819;BME280;65772;51.096;17.006;2023-03-14T11:52:12;98226.10;;;14.72;53.96
76819;BME280;65772;51.096;17.006;2023-03-14T11:54:47;98223.95;;;14.75;54.03
76819;BME280;65772;51.096;17.006;2023-03-14T11:57:20;98224.52;;;14.81;53.87
76819;BME280;65772;51.096;17.006;2023-03-14T11:59:55;98220.20;;;14.90;53.83
76819;BME280;65772;51.096;17.006;2023-03-14T12:02:35;98213.05;;;14.94;53.32
76819;BME280;65772;51.096;17.006;2023-03-14T12:05:45;98217.69;;;14.94;53.50
76819;BME280;65772;51.096;17.006;2023-03-14T12:08:42;98217.63;;;14.96;53.17
76819;BME280;65772;51.096;17.006;2023-03-14T12:11:19;98217.61;;;14.97;53.37
76819;BME280;65772;51.096;17.006;2023-03-14T12:13:52;98216.92;;;14.98;53.46
76819;BME280;65772;51.096;17.006;2023-03-14T12:16:39;98214.64;;;15.00;53.71
76819;BME280;65772;51.096;17.006;2023-03-14T12:19:36;98219.22;;;15.03;53.85
76819;BME280;65772;51.096;17.006;2023-03-14T12:22:21;98217.42;;;15.06;53.86
76819;BME280;65772;51.096;17.006;2023-03-14T12:24:55;98211.00;;;15.08;53.88
76819;BME280;65772;51.096;17.006;2023-03-14T12:27:44;98212.16;;;15.11;54.08
76819;BME280;65772;51.096;17.006;2023-03-14T12:30:25;98208.23;;;15.10;54.19
76819;BME280;65772;51.096;17.006;2023-03-14T12:36:03;98203.17;;;15.05;54.27
76819;BME280;65772;51.096;17.006;2023-03-14T12:38:48;98202.38;;;15.03;54.38
76819;BME280;65772;51.096;17.006;2023-03-14T12:41:24;98196.52;;;15.04;54.41
76819;BME280;65772;51.096;17.006;2023-03-14T12:43:56;98196.02;;;15.03;54.62
76819;BME280;65772;51.096;17.006;2023-03-14T12:46:48;98195.71;;;15.01;54.45
76819;BME280;65772;51.096;17.006;2023-03-14T12:49:18;98198.31;;;15.00;54.53
76819;BME280;65772;51.096;17.006;2023-03-14T12:51:54;98195.06;;;14.99;54.65
76819;BME280;65772;51.096;17.006;2023-03-14T12:54:38;98198.80;;;14.94;54.77
76819;BME280;65772;51.096;17.006;2023-03-14T12:57:23;98192.90;;;14.89;54.95
76819;BME280;65772;51.096;17.006;2023-03-14T12:59:57;98191.23;;;14.87;55.00
76819;BME280;65772;51.096;17.006;2023-03-14T13:02:36;98189.19;;;14.86;55.20
76819;BME280;65772;51.096;17.006;2023-03-14T13:05:13;98186.53;;;14.82;55.02
76819;BME280;65772;51.096;17.006;2023-03-14T13:08:04;98186.63;;;14.78;55.08
76819;BME280;65772;51.096;17.006;2023-03-14T13:10:44;98188.77;;;14.73;55.34
76819;BME280;65772;51.096;17.006;2023-03-14T13:13:21;98186.67;;;14.69;55.47
76819;BME280;65772;51.096;17.006;2023-03-14T13:15:56;98182.48;;;14.63;55.42
76819;BME280;65772;51.096;17.006;2023-03-14T13:18:33;98189.96;;;14.59;55.62
76819;BME280;65772;51.096;17.006;2023-03-14T13:21:09;98182.14;;;14.55;55.79
76819;BME280;65772;51.096;17.006;2023-03-14T13:23:41;98177.98;;;14.50;55.71
76819;BME280;65772;51.096;17.006;2023-03-14T13:26:25;98172.90;;;14.46;56.00
76819;BME280;65772;51.096;17.006;2023-03-14T13:29:11;98172.42;;;14.44;55.85
76819;BME280;65772;51.096;17.006;2023-03-14T13:31:47;98173.08;;;14.46;55.88
76819;BME280;65772;51.096;17.006;2023-03-14T13:34:19;98169.75;;;14.49;55.95
76819;BME280;65772;51.096;17.006;2023-03-14T13:36:52;98174.33;;;14.51;55.89
76819;BME280;65772;51.096;17.006;2023-03-14T13:39:26;98178.94;;;14.52;55.89
76819;BME280;65772;51.096;17.006;2023-03-14T13:42:00;98173.68;;;14.50;56.24
76819;BME280;65772;51.096;17.006;2023-03-14T13:44:34;98173.84;;;14.50;56.35
76819;BME280;65772;51.096;17.006;2023-03-14T13:47:10;98170.58;;;14.50;56.46
76819;BME280;65772;51.096;17.006;2023-03-14T13:49:44;98166.47;;;14.50;56.43
76819;BME280;65772;51.096;17.006;2023-03-14T13:52:27;98174.44;;;14.46;56.34
76819;BME280;65772;51.096;17.006;2023-03-14T13:55:01;98173.86;;;14.41;56.41